createdAt,value
2019-05-09T00:01:57.050Z,20.92
2019-05-09T00:04:18.464Z,19.45
2019-05-09T00:06:40.080Z,20.85
2019-05-09T00:09:03.582Z,18.85
2019-05-09T00:11:24.819Z,18.87
2019-05-09T00:13:46.206Z,18.67
2019-05-09T00:16:08.012Z,18.02
2019-05-09T00:18:29.499Z,19.05
2019-05-09T00:20:58.939Z,17.00
2019-05-09T00:23:20.444Z,17.15
2019-05-09T00:25:43.331Z,23.50
2019-05-09T00:28:05.766Z,16.52
2019-05-09T00:30:46.170Z,16.05
2019-05-09T00:33:07.897Z,18.12
2019-05-09T00:35:31.081Z,16.00
2019-05-09T00:37:54.381Z,17.87
2019-05-09T00:40:15.910Z,17.25
2019-05-09T00:42:37.398Z,15.60
2019-05-09T00:45:01.231Z,19.52
2019-05-09T00:47:27.776Z,18.17
2019-05-09T00:49:49.299Z,15.03
2019-05-09T00:52:10.917Z,17.60
2019-05-09T00:54:33.502Z,19.32
2019-05-09T00:56:55.014Z,16.00
2019-05-09T00:59:16.607Z,15.88
2019-05-09T01:01:38.775Z,15.03
2019-05-09T01:04:00.066Z,16.82
2019-05-09T01:06:23.627Z,13.98
2019-05-09T01:08:44.588Z,15.75
2019-05-09T01:11:12.430Z,18.27
2019-05-09T01:13:29.280Z,13.75
2019-05-09T01:15:50.607Z,14.87
2019-05-09T01:18:13.262Z,17.17
2019-05-09T01:20:35.180Z,15.00
2019-05-09T01:22:56.677Z,17.10
2019-05-09T01:25:18.058Z,16.67
2019-05-09T01:27:39.571Z,18.52
2019-05-09T01:30:01.086Z,15.90
2019-05-09T01:32:24.458Z,12.53
2019-05-09T01:34:46.258Z,16.90
2019-05-09T01:37:09.510Z,16.27
2019-05-09T01:39:33.659Z,15.55
2019-05-09T01:41:55.287Z,15.95
2019-05-09T01:44:16.610Z,12.98
2019-05-09T01:46:38.227Z,17.85
2019-05-09T01:48:59.514Z,17.20
2019-05-09T01:51:23.158Z,16.87
2019-05-09T01:53:46.394Z,13.20
2019-05-09T01:56:07.725Z,17.67
2019-05-09T01:58:30.933Z,16.17
2019-05-09T02:00:54.038Z,17.65
2019-05-09T02:03:15.638Z,22.30
2019-05-09T02:05:37.253Z,18.40
2019-05-09T02:07:58.682Z,18.40
2019-05-09T02:10:19.972Z,18.35
2019-05-09T02:12:43.023Z,21.15
2019-05-09T02:15:13.686Z,18.20
2019-05-09T02:17:55.825Z,19.20
2019-05-09T02:20:06.636Z,18.02
2019-05-09T02:22:35.432Z,20.62
2019-05-09T02:24:57.134Z,18.90
2019-05-09T02:27:18.843Z,19.30
2019-05-09T02:29:40.525Z,21.42
2019-05-09T02:32:04.569Z,17.57
2019-05-09T02:34:27.032Z,22.48
2019-05-09T02:36:49.566Z,21.35
2019-05-09T02:39:11.289Z,24.63
2019-05-09T02:41:32.893Z,24.23
2019-05-09T02:43:54.818Z,22.82
2019-05-09T02:46:19.038Z,24.82
2019-05-09T02:48:40.951Z,26.07
2019-05-09T02:51:02.279Z,28.47
2019-05-09T02:53:23.554Z,24.63
2019-05-09T02:55:45.148Z,25.12
2019-05-09T02:58:08.470Z,25.23
2019-05-09T03:00:43.899Z,21.80
2019-05-09T03:03:13.309Z,24.23
2019-05-09T03:05:34.719Z,25.50
2019-05-09T03:07:58.271Z,24.52
2019-05-09T03:10:21.215Z,25.35
2019-05-09T03:12:42.802Z,27.13
2019-05-09T03:15:05.307Z,27.10
2019-05-09T03:17:28.090Z,27.52
2019-05-09T03:19:49.928Z,26.65
2019-05-09T03:22:13.145Z,27.02
2019-05-09T03:24:34.464Z,27.42
2019-05-09T03:26:59.533Z,25.70
2019-05-09T03:29:34.917Z,25.25
2019-05-09T03:32:00.027Z,27.37
2019-05-09T03:34:20.266Z,25.25
2019-05-09T03:36:41.701Z,24.00
2019-05-09T03:39:08.042Z,22.75
2019-05-09T03:41:31.505Z,27.55
2019-05-09T03:43:53.010Z,25.00
2019-05-09T03:46:18.069Z,27.07
2019-05-09T03:48:54.910Z,26.77
2019-05-09T03:51:18.375Z,29.25
2019-05-09T03:53:39.771Z,26.97
2019-05-09T03:56:03.094Z,25.20
2019-05-09T03:58:24.866Z,32.05
2019-05-09T04:00:47.948Z,24.82
2019-05-09T04:03:09.693Z,28.45
2019-05-09T04:05:31.286Z,26.95
2019-05-09T04:07:52.622Z,32.73
2019-05-09T04:10:14.105Z,31.62
2019-05-09T04:12:37.512Z,30.12
2019-05-09T04:15:00.462Z,28.55
2019-05-09T04:17:23.750Z,29.63
2019-05-09T04:19:47.728Z,28.50
2019-05-09T04:22:08.766Z,30.97
2019-05-09T04:24:30.522Z,29.02
2019-05-09T04:26:53.714Z,27.65
2019-05-09T04:29:15.265Z,28.87
2019-05-09T04:31:38.408Z,32.38
2019-05-09T04:34:00.146Z,33.18
2019-05-09T04:36:23.393Z,30.75
2019-05-09T04:38:47.145Z,29.45
2019-05-09T04:41:08.587Z,25.13
2019-05-09T04:43:35.765Z,33.33
2019-05-09T04:45:57.949Z,30.55
2019-05-09T04:50:56.537Z,33.40
2019-05-09T04:53:18.318Z,30.33
2019-05-09T04:55:40.439Z,30.23
2019-05-09T04:58:02.078Z,39.40
2019-05-09T05:00:31.059Z,30.10
2019-05-09T05:02:53.837Z,31.17
2019-05-09T05:05:15.196Z,29.18
2019-05-09T05:07:37.624Z,31.17
2019-05-09T05:09:59.383Z,28.77
2019-05-09T05:12:20.930Z,31.07
2019-05-09T05:14:42.226Z,30.15
2019-05-09T05:17:08.454Z,29.27
2019-05-09T05:19:28.539Z,33.57
2019-05-09T05:21:50.651Z,24.40
2019-05-09T05:24:14.837Z,30.20
2019-05-09T05:26:38.068Z,28.77
2019-05-09T05:28:59.326Z,30.62
2019-05-09T05:31:20.825Z,27.52
2019-05-09T05:33:53.869Z,29.30
2019-05-09T05:36:18.106Z,31.75
2019-05-09T05:38:39.605Z,22.50
2019-05-09T05:41:02.913Z,29.25
2019-05-09T05:43:37.887Z,31.10
2019-05-09T05:45:49.433Z,29.55
2019-05-09T05:48:17.483Z,30.88
2019-05-09T05:50:39.047Z,26.23
2019-05-09T05:53:00.734Z,28.98
2019-05-09T05:55:22.385Z,28.47
2019-05-09T05:57:43.945Z,32.20
2019-05-09T06:00:07.824Z,32.50
2019-05-09T06:02:29.690Z,27.70
2019-05-09T06:04:51.220Z,37.75
2019-05-09T06:07:12.674Z,32.23
2019-05-09T06:09:34.178Z,32.40
2019-05-09T06:11:57.764Z,29.42
2019-05-09T06:14:19.153Z,30.53
2019-05-09T06:16:40.561Z,33.63
2019-05-09T06:19:02.020Z,32.53
2019-05-09T06:21:23.489Z,36.30
2019-05-09T06:23:44.914Z,28.95
2019-05-09T06:26:09.886Z,32.35
2019-05-09T06:28:29.834Z,34.97
2019-05-09T06:30:51.751Z,31.37
2019-05-09T06:33:13.034Z,28.98
2019-05-09T06:35:34.456Z,33.35
2019-05-09T06:37:58.435Z,29.05
2019-05-09T06:40:21.462Z,30.53
2019-05-09T06:42:43.226Z,29.52
2019-05-09T06:45:07.707Z,30.50
2019-05-09T06:47:31.292Z,30.62
2019-05-09T06:49:57.281Z,29.87
2019-05-09T06:52:18.397Z,31.82
2019-05-09T06:54:41.644Z,28.75
2019-05-09T06:57:03.398Z,32.37
2019-05-09T06:59:24.953Z,33.23
2019-05-09T07:01:50.878Z,37.67
2019-05-09T07:04:23.675Z,33.30
2019-05-09T07:07:07.771Z,28.98
2019-05-09T07:09:30.455Z,35.05
2019-05-09T07:11:51.732Z,34.90
2019-05-09T07:14:33.474Z,53.95
2019-05-09T07:16:53.471Z,49.20
2019-05-09T07:19:16.891Z,49.80
2019-05-09T07:21:57.967Z,43.75
2019-05-09T07:24:20.772Z,37.75
2019-05-09T07:26:42.262Z,30.02
2019-05-09T07:29:03.889Z,32.03
2019-05-09T07:31:32.862Z,34.35
2019-05-09T07:33:59.159Z,33.85
2019-05-09T07:36:20.833Z,33.18
2019-05-09T07:38:42.453Z,30.50
2019-05-09T07:41:03.726Z,33.25
2019-05-09T07:43:28.049Z,32.78
2019-05-09T07:46:08.506Z,27.30
2019-05-09T07:48:29.203Z,33.02
2019-05-09T07:50:50.624Z,31.37
2019-05-09T07:53:12.713Z,37.00
2019-05-09T07:55:34.166Z,35.38
2019-05-09T07:57:56.264Z,33.25
2019-05-09T08:00:33.512Z,30.68
2019-05-09T08:02:55.135Z,30.65
2019-05-09T08:05:27.867Z,35.40
2019-05-09T08:07:49.153Z,31.57
2019-05-09T08:10:11.329Z,30.90
2019-05-09T08:12:33.071Z,32.35
2019-05-09T08:15:07.422Z,32.48
2019-05-09T08:17:18.183Z,33.00
2019-05-09T08:19:39.807Z,33.73
2019-05-09T08:22:01.315Z,31.60
2019-05-09T08:24:22.946Z,33.30
2019-05-09T08:26:44.250Z,33.08
2019-05-09T08:29:09.092Z,35.75
2019-05-09T08:31:29.257Z,29.93
2019-05-09T08:33:50.555Z,31.80
2019-05-09T08:36:12.163Z,31.57
2019-05-09T08:38:34.108Z,33.35
2019-05-09T08:41:12.647Z,32.70
2019-05-09T08:43:37.607Z,28.32
2019-05-09T08:45:58.832Z,31.42
2019-05-09T08:48:20.434Z,35.38
2019-05-09T08:50:43.643Z,34.38
2019-05-09T08:53:05.113Z,40.85
2019-05-09T08:55:27.856Z,35.88
2019-05-09T08:57:49.903Z,35.75
2019-05-09T09:00:12.210Z,40.33
2019-05-09T09:02:33.606Z,36.33
2019-05-09T09:04:57.983Z,32.33
2019-05-09T09:07:19.052Z,30.77
2019-05-09T09:09:40.656Z,33.23
2019-05-09T09:12:01.993Z,36.68
2019-05-09T09:14:23.473Z,34.40
2019-05-09T09:16:44.966Z,33.30
2019-05-09T09:19:08.716Z,34.80
2019-05-09T09:21:29.929Z,38.92
2019-05-09T09:23:51.879Z,36.45
2019-05-09T09:26:13.558Z,40.98
2019-05-09T09:28:34.905Z,36.42
2019-05-09T09:30:58.961Z,34.40
2019-05-09T09:33:19.630Z,36.20
2019-05-09T09:35:41.251Z,36.93
2019-05-09T09:38:02.723Z,41.88
2019-05-09T09:40:24.269Z,41.30
2019-05-09T09:42:45.662Z,39.25
2019-05-09T09:45:07.790Z,38.23
2019-05-09T09:47:29.972Z,34.78
2019-05-09T09:49:55.223Z,35.25
2019-05-09T09:52:18.801Z,36.80
2019-05-09T09:54:40.824Z,37.03
2019-05-09T09:57:02.609Z,42.45
2019-05-09T09:59:41.202Z,38.02
2019-05-09T10:02:04.772Z,37.20
2019-05-09T10:04:28.253Z,37.20
2019-05-09T10:06:52.821Z,28.70
2019-05-09T10:09:12.766Z,38.13
2019-05-09T10:11:34.437Z,39.63
2019-05-09T10:13:58.302Z,35.80
2019-05-09T10:16:29.149Z,41.10
2019-05-09T10:18:49.360Z,37.50
2019-05-09T10:21:18.579Z,36.50
2019-05-09T10:23:40.605Z,41.60
2019-05-09T10:26:02.135Z,38.58
2019-05-09T10:28:23.555Z,32.88
2019-05-09T10:30:44.866Z,36.73
2019-05-09T10:33:08.919Z,41.55
2019-05-09T10:35:29.662Z,40.53
2019-05-09T10:37:53.554Z,37.30
2019-05-09T10:40:20.446Z,41.42
2019-05-09T10:42:48.296Z,37.05
2019-05-09T10:45:28.319Z,37.00
2019-05-09T10:47:49.806Z,38.58
2019-05-09T10:50:12.359Z,39.63
2019-05-09T10:52:33.892Z,44.95
2019-05-09T10:54:55.176Z,36.30
2019-05-09T10:57:16.682Z,40.70
2019-05-09T10:59:38.099Z,37.60
2019-05-09T11:01:59.495Z,38.45
2019-05-09T11:04:21.044Z,37.10
2019-05-09T11:06:42.649Z,41.18
2019-05-09T11:09:08.584Z,41.08
2019-05-09T11:11:29.894Z,35.30
2019-05-09T11:13:51.668Z,37.60
2019-05-09T11:16:13.062Z,37.20
2019-05-09T11:18:34.370Z,39.58
2019-05-09T11:20:58.074Z,33.50
2019-05-09T11:23:19.586Z,31.20
2019-05-09T11:25:42.846Z,34.23
2019-05-09T11:28:11.221Z,37.63
2019-05-09T11:30:28.206Z,37.73
2019-05-09T11:32:49.743Z,37.85
2019-05-09T11:35:11.735Z,40.98
2019-05-09T11:37:33.306Z,37.45
2019-05-09T11:39:54.928Z,34.00
2019-05-09T11:42:17.817Z,36.15
2019-05-09T11:44:39.534Z,35.98
2019-05-09T11:47:00.821Z,33.67
2019-05-09T11:49:22.341Z,31.10
2019-05-09T11:51:44.008Z,30.00
2019-05-09T11:54:05.311Z,34.92
2019-05-09T11:56:26.721Z,34.55
2019-05-09T11:58:48.504Z,32.70
2019-05-09T12:01:10.210Z,36.08
2019-05-09T12:03:31.658Z,35.25
2019-05-09T12:05:53.006Z,33.25
2019-05-09T12:08:14.403Z,37.42
2019-05-09T12:10:38.213Z,34.38
2019-05-09T12:13:19.657Z,35.10
2019-05-09T12:15:41.268Z,34.03
2019-05-09T12:18:08.481Z,37.10
2019-05-09T12:20:48.414Z,33.13
2019-05-09T12:23:10.372Z,33.65
2019-05-09T12:25:31.841Z,29.75
2019-05-09T12:27:53.513Z,32.33
2019-05-09T12:30:15.299Z,36.25
2019-05-09T12:32:38.522Z,32.28
2019-05-09T12:35:00.246Z,31.37
2019-05-09T12:37:21.837Z,36.70
2019-05-09T12:39:43.354Z,30.48
2019-05-09T12:42:04.971Z,34.55
2019-05-09T12:44:28.710Z,33.08
2019-05-09T12:46:49.718Z,25.37
2019-05-09T12:49:11.100Z,26.30
2019-05-09T12:51:32.415Z,30.72
2019-05-09T12:53:54.396Z,29.87
2019-05-09T12:56:18.491Z,25.97
2019-05-09T12:58:38.996Z,28.98
2019-05-09T13:01:00.277Z,25.05
2019-05-09T13:03:21.566Z,27.58
2019-05-09T13:05:42.974Z,27.70
2019-05-09T13:08:04.299Z,23.60
2019-05-09T13:10:25.581Z,22.58
2019-05-09T13:12:48.401Z,26.23
2019-05-09T13:15:10.145Z,20.30
2019-05-09T13:17:39.413Z,22.93
2019-05-09T13:20:01.198Z,20.40
2019-05-09T13:22:22.914Z,16.07
2019-05-09T13:24:44.559Z,19.37
2019-05-09T13:27:07.891Z,17.60
2019-05-09T13:29:29.694Z,18.48
2019-05-09T13:31:51.394Z,16.07
2019-05-09T13:34:12.981Z,14.20
2019-05-09T13:36:34.590Z,14.63
2019-05-09T13:39:03.894Z,15.00
2019-05-09T13:41:19.133Z,8.25
2019-05-09T13:43:47.455Z,8.03
2019-05-09T13:46:04.149Z,6.07
2019-05-09T13:48:46.790Z,7.83
2019-05-09T13:50:48.769Z,7.00
2019-05-09T13:53:10.293Z,4.85
2019-05-09T13:55:31.897Z,5.58
2019-05-09T13:57:53.196Z,4.90
2019-05-09T14:00:14.679Z,4.35
2019-05-09T14:02:38.451Z,6.10
2019-05-09T14:04:59.650Z,6.43
2019-05-09T14:07:21.227Z,6.17
2019-05-09T14:09:42.653Z,6.30
2019-05-09T14:12:09.106Z,5.00
2019-05-09T14:14:29.133Z,6.62
2019-05-09T14:16:50.753Z,5.40
2019-05-09T14:19:30.217Z,4.85
2019-05-09T14:21:58.291Z,4.15
2019-05-09T14:24:19.489Z,5.05
2019-05-09T14:26:41.185Z,5.05
2019-05-09T14:29:02.688Z,5.75
2019-05-09T14:31:24.227Z,3.75
2019-05-09T14:33:47.647Z,4.55
2019-05-09T14:36:08.972Z,4.50
2019-05-09T14:38:50.122Z,3.52
2019-05-09T14:41:11.421Z,3.72
2019-05-09T14:43:33.085Z,3.08
2019-05-09T14:45:54.328Z,3.50
2019-05-09T14:48:15.803Z,3.77
2019-05-09T14:50:38.277Z,3.98
2019-05-09T14:53:00.031Z,2.55
2019-05-09T14:55:21.521Z,3.85
2019-05-09T14:57:43.190Z,3.27
2019-05-09T15:00:07.749Z,2.95
2019-05-09T15:02:29.160Z,2.50
2019-05-09T15:04:50.558Z,2.87
2019-05-09T15:07:11.866Z,3.98
2019-05-09T15:09:33.989Z,5.87
2019-05-09T15:11:58.253Z,3.92
2019-05-09T15:14:18.746Z,4.37
2019-05-09T15:16:40.253Z,7.50
2019-05-09T15:19:01.575Z,4.25
2019-05-09T15:21:23.321Z,5.78
2019-05-09T15:23:44.808Z,4.60
2019-05-09T15:26:07.727Z,5.00
2019-05-09T15:28:29.969Z,4.37
2019-05-09T15:30:51.465Z,5.15
2019-05-09T15:33:13.195Z,6.70
2019-05-09T15:35:34.741Z,6.92
2019-05-09T15:37:59.035Z,3.58
2019-05-09T15:40:20.035Z,5.30
2019-05-09T15:42:41.642Z,8.43
2019-05-09T15:45:07.598Z,5.37
2019-05-09T15:47:37.653Z,4.85
2019-05-09T15:50:14.624Z,4.80
2019-05-09T15:52:22.833Z,6.85
2019-05-09T15:54:44.329Z,5.20
2019-05-09T15:57:08.463Z,5.80
2019-05-09T15:59:29.473Z,5.73
2019-05-09T16:01:51.088Z,8.40
2019-05-09T16:04:12.681Z,5.55
2019-05-09T16:06:34.010Z,9.58
2019-05-09T16:08:58.375Z,7.47
2019-05-09T16:11:18.705Z,4.58
2019-05-09T16:13:47.955Z,7.25
2019-05-09T16:16:09.787Z,5.62
2019-05-09T16:18:31.400Z,7.28
2019-05-09T16:20:53.078Z,5.40
2019-05-09T16:23:14.662Z,4.53
2019-05-09T16:25:38.562Z,5.03
2019-05-09T16:27:59.612Z,6.77
2019-05-09T16:30:20.990Z,7.17
2019-05-09T16:32:42.837Z,8.25
2019-05-09T16:35:04.468Z,13.05
2019-05-09T16:37:28.217Z,7.62
2019-05-09T16:39:49.243Z,8.70
2019-05-09T16:42:10.761Z,5.97
2019-05-09T16:44:32.346Z,5.12
2019-05-09T16:46:54.476Z,4.65
2019-05-09T16:49:17.553Z,4.28
2019-05-09T16:51:40.501Z,4.53
2019-05-09T16:54:02.161Z,4.08
2019-05-09T16:56:23.708Z,4.15
2019-05-09T16:58:45.307Z,5.60
2019-05-09T17:01:08.285Z,6.15
2019-05-09T17:03:29.807Z,7.35
2019-05-09T17:05:51.340Z,7.67
2019-05-09T17:08:12.782Z,6.42
2019-05-09T17:10:34.292Z,4.37
2019-05-09T17:12:58.057Z,4.47
2019-05-09T17:15:18.967Z,5.22
2019-05-09T17:17:40.499Z,6.75
2019-05-09T17:20:03.442Z,8.33
2019-05-09T17:22:43.789Z,8.13
2019-05-09T17:25:05.440Z,7.95
2019-05-09T17:27:28.083Z,7.30
2019-05-09T17:29:49.589Z,8.30
2019-05-09T17:32:11.165Z,8.68
2019-05-09T17:34:32.819Z,7.45
2019-05-09T17:36:54.336Z,6.05
2019-05-09T17:39:18.423Z,6.92
2019-05-09T17:41:39.256Z,5.13
2019-05-09T17:44:00.808Z,6.20
2019-05-09T17:46:24.451Z,6.87
2019-05-09T17:48:47.893Z,6.78
2019-05-09T17:51:09.794Z,5.65
2019-05-09T17:53:33.802Z,6.55
2019-05-09T17:55:54.854Z,7.37
2019-05-09T17:58:27.194Z,8.83
2019-05-09T18:00:39.703Z,8.60
2019-05-09T18:03:02.066Z,7.58
2019-05-09T18:05:23.742Z,7.97
2019-05-09T18:07:45.130Z,9.05
2019-05-09T18:10:07.738Z,9.90
2019-05-09T18:12:29.681Z,10.88
2019-05-09T18:14:51.087Z,9.98
2019-05-09T18:17:12.481Z,11.85
2019-05-09T18:19:34.130Z,9.70
2019-05-09T18:21:57.798Z,9.80
2019-05-09T18:24:19.064Z,7.30
2019-05-09T18:26:41.015Z,9.80
2019-05-09T18:29:02.486Z,10.13
2019-05-09T18:31:27.823Z,11.93
2019-05-09T18:33:50.824Z,11.28
2019-05-09T18:36:12.424Z,10.15
2019-05-09T18:38:34.055Z,12.18
2019-05-09T18:40:57.805Z,10.45
2019-05-09T18:43:18.698Z,10.55
2019-05-09T18:45:40.326Z,13.75
2019-05-09T18:48:01.653Z,13.00
2019-05-09T18:50:22.955Z,12.30
2019-05-09T18:52:44.455Z,9.48
2019-05-09T18:55:07.353Z,15.75
2019-05-09T18:57:29.034Z,8.65
2019-05-09T18:59:50.512Z,8.60
2019-05-09T19:02:12.114Z,10.20
2019-05-09T19:04:33.529Z,9.90
2019-05-09T19:06:54.928Z,11.43
2019-05-09T19:09:16.501Z,7.28
2019-05-09T19:11:38.228Z,7.20
2019-05-09T19:14:00.381Z,6.05
2019-05-09T19:16:32.440Z,5.50
2019-05-09T19:18:58.825Z,5.40
2019-05-09T19:21:22.255Z,6.30
2019-05-09T19:23:43.865Z,5.63
2019-05-09T19:26:05.680Z,7.83
2019-05-09T19:28:27.082Z,9.50
2019-05-09T19:30:48.557Z,9.33
2019-05-09T19:33:10.080Z,7.20
2019-05-09T19:35:32.020Z,11.65
2019-05-09T19:37:53.431Z,8.88
2019-05-09T19:40:20.005Z,9.13
2019-05-09T19:42:38.742Z,10.05
2019-05-09T19:45:00.137Z,8.48
2019-05-09T19:47:21.661Z,7.35
2019-05-09T19:49:42.941Z,6.45
2019-05-09T19:52:04.564Z,7.28
2019-05-09T19:54:26.074Z,8.05
2019-05-09T19:56:47.463Z,8.30
2019-05-09T19:59:08.802Z,8.40
2019-05-09T20:01:30.523Z,8.93
2019-05-09T20:03:51.997Z,8.13
2019-05-09T20:06:16.509Z,9.20
2019-05-09T20:08:37.465Z,10.77
2019-05-09T20:11:17.577Z,10.38
2019-05-09T20:13:59.086Z,10.03
2019-05-09T20:16:20.607Z,9.18
2019-05-09T20:18:42.114Z,9.23
2019-05-09T20:21:03.826Z,9.48
2019-05-09T20:23:25.425Z,9.85
2019-05-09T20:25:47.494Z,10.65
2019-05-09T20:28:09.310Z,9.50
2019-05-09T20:30:31.063Z,10.82
2019-05-09T20:32:58.637Z,13.10
2019-05-09T20:35:20.273Z,13.98
2019-05-09T20:37:41.655Z,14.03
2019-05-09T20:40:05.560Z,13.20
2019-05-09T20:42:27.105Z,14.33
2019-05-09T20:44:48.526Z,15.15
2019-05-09T20:47:10.312Z,13.62
2019-05-09T20:49:31.730Z,11.28
2019-05-09T20:51:53.320Z,14.05
2019-05-09T20:54:20.916Z,12.58
2019-05-09T20:56:38.306Z,12.75
2019-05-09T20:58:59.723Z,10.98
2019-05-09T21:01:21.358Z,12.58
2019-05-09T21:03:58.569Z,12.90
2019-05-09T21:06:06.186Z,14.93
2019-05-09T21:08:27.855Z,15.90
2019-05-09T21:10:49.381Z,14.98
2019-05-09T21:13:10.803Z,14.63
2019-05-09T21:15:52.165Z,16.93
2019-05-09T21:18:13.485Z,16.77
2019-05-09T21:20:34.955Z,16.93
2019-05-09T21:22:56.638Z,17.95
2019-05-09T21:25:18.479Z,18.57
2019-05-09T21:27:40.081Z,16.48
2019-05-09T21:30:03.798Z,18.12
2019-05-09T21:32:25.285Z,17.30
2019-05-09T21:34:46.694Z,16.85
2019-05-09T21:37:08.318Z,18.87
2019-05-09T21:39:30.205Z,20.12
2019-05-09T21:41:51.696Z,19.42
2019-05-09T21:44:13.253Z,18.60
2019-05-09T21:46:34.733Z,18.70
2019-05-09T21:48:56.135Z,20.48
2019-05-09T21:51:17.667Z,19.20
2019-05-09T21:53:41.719Z,20.62
2019-05-09T21:56:03.527Z,21.27
2019-05-09T21:58:25.246Z,21.77
2019-05-09T22:00:49.857Z,23.52
2019-05-09T22:03:11.465Z,20.48
2019-05-09T22:05:34.666Z,23.52
2019-05-09T22:08:01.908Z,21.70
2019-05-09T22:10:23.940Z,23.70
2019-05-09T22:12:45.593Z,22.30
2019-05-09T22:15:10.829Z,21.33
2019-05-09T22:17:37.035Z,24.65
2019-05-09T22:19:59.089Z,26.40
2019-05-09T22:22:20.664Z,24.07
2019-05-09T22:24:42.109Z,27.10
2019-05-09T22:27:04.615Z,26.75
2019-05-09T22:29:26.574Z,28.02
2019-05-09T22:31:48.188Z,28.40
2019-05-09T22:34:10.178Z,28.20
2019-05-09T22:36:31.506Z,29.32
2019-05-09T22:38:52.991Z,31.33
2019-05-09T22:41:14.790Z,31.75
2019-05-09T22:43:36.096Z,32.45
2019-05-09T22:45:58.883Z,31.17
2019-05-09T22:48:40.047Z,33.42
2019-05-09T22:51:01.655Z,34.53
2019-05-09T22:53:23.531Z,34.88
2019-05-09T22:55:45.581Z,36.28
2019-05-09T22:58:08.022Z,37.10
2019-05-09T23:00:29.379Z,35.52
2019-05-09T23:02:51.024Z,35.70
2019-05-09T23:05:12.615Z,36.17
2019-05-09T23:07:34.335Z,34.48
2019-05-09T23:09:56.395Z,36.23
2019-05-09T23:12:18.812Z,36.23
2019-05-09T23:14:40.404Z,39.33
2019-05-09T23:17:02.384Z,36.80
2019-05-09T23:19:43.634Z,36.10
2019-05-09T23:22:05.361Z,39.55
2019-05-09T23:24:29.069Z,39.00
2019-05-09T23:26:50.560Z,33.67
2019-05-09T23:29:12.514Z,34.92
2019-05-09T23:31:50.962Z,38.58
2019-05-09T23:34:13.197Z,37.28
2019-05-09T23:36:34.683Z,37.48
2019-05-09T23:39:14.552Z,39.65
2019-05-09T23:41:35.922Z,39.13
2019-05-09T23:43:58.104Z,40.83
2019-05-09T23:46:20.463Z,35.20
2019-05-09T23:48:41.860Z,34.67
2019-05-09T23:51:03.694Z,38.75
2019-05-09T23:53:37.988Z,38.28
2019-05-09T23:56:17.846Z,38.88
2019-05-09T23:58:58.042Z,36.63
